Time;durP1;ratioP1;P1;durP2;ratioP2;P2;SDS_P1;SDS_P2;PMS_P1;PMS_P2;Temp;Humidity;BMP_temperature;BMP_pressure;BME280_temperature;BME280_humidity;BME280_pressure;Samples;Min_cycle;Max_cycle;Signal;HPM_P1;HPM_P2
2023/09/18 00:02:12;;;;;;;5.88;2.78;;;;;;;20.84;73.94;100576.28;5071623;28;20495;-84
2023/09/18 00:04:37;;;;;;;6.18;2.60;;;;;;;21.01;73.63;100599.56;5060840;28;20104;-83
2023/09/18 00:07:03;;;;;;;4.25;2.63;;;;;;;21.08;73.68;100605.47;5053378;28;20021;-81
2023/09/18 00:09:28;;;;;;;8.18;3.20;;;;;;;20.98;73.41;100584.63;5067290;28;20028;-82
2023/09/18 00:11:53;;;;;;;7.18;2.90;;;;;;;20.98;73.49;100581.91;5053054;28;20029;-82
2023/09/18 00:14:19;;;;;;;6.93;2.60;;;;;;;20.91;73.86;100567.84;5062718;28;20128;-81
2023/09/18 00:16:45;;;;;;;6.97;2.90;;;;;;;20.62;74.88;100576.59;5063583;28;20032;-82
2023/09/18 00:19:10;;;;;;;5.63;2.75;;;;;;;20.60;74.76;100567.13;5053093;28;20108;-82
2023/09/18 00:21:36;;;;;;;9.55;3.25;;;;;;;20.55;75.17;100569.78;5064691;28;20039;-82
2023/09/18 00:24:02;;;;;;;7.13;3.10;;;;;;;20.76;75.17;100587.69;5073068;28;20055;-81
2023/09/18 00:26:28;;;;;;;7.95;3.03;;;;;;;20.77;74.74;100581.16;5066031;28;20029;-81
2023/09/18 00:28:53;;;;;;;7.00;3.17;;;;;;;20.75;74.69;100579.81;5063660;28;20039;-81
2023/09/18 00:31:19;;;;;;;7.13;3.10;;;;;;;20.83;74.01;100574.66;5065128;28;20520;-82
2023/09/18 00:33:45;;;;;;;5.55;2.85;;;;;;;20.83;73.97;100565.72;5053108;28;20036;-82
2023/09/18 00:36:10;;;;;;;5.38;3.13;;;;;;;20.97;73.15;100569.47;5052474;28;20032;-82
2023/09/18 00:38:35;;;;;;;6.28;2.60;;;;;;;21.03;73.50;100578.41;5059542;28;20035;-82
2023/09/18 00:41:01;;;;;;;7.20;2.85;;;;;;;20.66;74.16;100549.75;5061111;28;20025;-81
2023/09/18 00:43:26;;;;;;;5.90;2.63;;;;;;;20.72;74.26;100554.09;5052723;28;20040;-84
2023/09/18 00:45:52;;;;;;;5.97;2.88;;;;;;;20.84;73.64;100546.47;5052315;28;20025;-83
2023/09/18 00:48:18;;;;;;;6.00;2.95;;;;;;;20.76;73.96;100552.44;5055336;28;20028;-81
2023/09/18 00:50:47;;;;;;;7.13;3.17;;;;;;;20.76;75.01;100554.31;5071945;28;20055;-81
2023/09/18 00:53:26;;;;;;;5.97;2.97;;;;;;;21.05;73.57;100574.31;5072537;28;20071;-81
2023/09/18 00:55:54;;;;;;;7.00;3.08;;;;;;;21.11;73.77;100569.69;5053822;28;20059;-81
2023/09/18 00:58:20;;;;;;;7.55;3.20;;;;;;;20.81;73.72;100544.28;5065756;28;20489;-81
2023/09/18 01:00:45;;;;;;;4.88;2.85;;;;;;;21.06;73.63;100564.28;5070217;28;20465;-82
2023/09/18 01:03:11;;;;;;;6.88;3.25;;;;;;;21.06;73.26;100554.25;5051679;28;20540;-83
2023/09/18 01:05:36;;;;;;;6.20;3.03;;;;;;;21.19;72.74;100569.13;5051958;28;20553;-82
2023/09/18 01:08:02;;;;;;;5.65;2.80;;;;;;;21.19;72.77;100569.13;5051724;28;20215;-82
2023/09/18 01:10:40;;;;;;;8.23;2.90;;;;;;;21.28;72.15;100575.56;5069944;28;20093;-83
2023/09/18 01:13:15;;;;;;;6.70;2.90;;;;;;;21.24;73.24;100576.41;5053272;28;20039;-82
2023/09/18 01:15:51;;;;;;;6.13;2.65;;;;;;;21.32;72.37;100566.91;5064362;28;20049;-83
2023/09/18 01:18:19;;;;;;;6.78;2.40;;;;;;;21.31;72.92;100566.09;5056090;28;20515;-82
2023/09/18 01:20:45;;;;;;;5.88;2.90;;;;;;;21.13;72.85;100558.56;5055318;28;20075;-82
2023/09/18 01:23:11;;;;;;;6.95;2.45;;;;;;;20.83;73.97;100542.13;5054978;28;20033;-81
2023/09/18 01:25:37;;;;;;;7.05;3.50;;;;;;;20.87;73.96;100545.91;5051086;28;20102;-82
2023/09/18 01:28:05;;;;;;;6.40;2.92;;;;;;;21.05;74.28;100538.25;5049996;28;20438;-82
2023/09/18 01:30:30;;;;;;;7.70;3.30;;;;;;;20.90;75.77;100538.31;5050877;28;20025;-84
2023/09/18 01:32:59;;;;;;;7.05;3.22;;;;;;;21.08;74.33;100545.81;5064091;28;20024;-81
2023/09/18 01:35:29;;;;;;;8.10;3.35;;;;;;;21.34;74.25;100560.09;5070440;28;21213;-81
2023/09/18 01:37:59;;;;;;;6.95;3.50;;;;;;;21.25;73.98;100546.31;5061602;28;20573;-82
2023/09/18 01:40:25;;;;;;;7.15;3.25;;;;;;;21.37;73.48;100551.41;5050856;28;20552;-83
2023/09/18 01:42:51;;;;;;;5.22;2.90;;;;;;;21.39;74.49;100559.25;5061429;28;20769;-81
2023/09/18 01:45:16;;;;;;;7.95;3.00;;;;;;;21.48;73.99;100557.63;5065069;28;20036;-81
2023/09/18 01:47:42;;;;;;;6.18;2.88;;;;;;;21.44;73.56;100556.56;5056489;28;20420;-82
2023/09/18 01:50:07;;;;;;;5.97;3.03;;;;;;;21.38;73.83;100563.88;5069669;28;20089;-82
2023/09/18 01:52:34;;;;;;;8.02;2.90;;;;;;;21.45;74.94;100556.28;5062330;28;20024;-82
2023/09/18 01:55:00;;;;;;;4.63;2.65;;;;;;;21.33;74.51;100546.81;5069122;28;20086;-82
2023/09/18 01:57:25;;;;;;;7.45;3.25;;;;;;;21.46;75.20;100562.50;5069774;28;20032;-82
2023/09/18 01:59:51;;;;;;;6.95;2.97;;;;;;;21.46;75.08;100547.03;5050575;28;20115;-82
2023/09/18 02:02:18;;;;;;;6.65;2.83;;;;;;;21.41;75.13;100549.75;5057114;28;20043;-81
2023/09/18 02:04:45;;;;;;;;;;;;;;;21.58;73.93;100563.00;5050934;28;20025;-83
2023/09/18 02:07:10;;;;;;;6.07;2.90;;;;;;;21.56;74.50;100567.88;5049155;28;19920;-82
2023/09/18 02:09:36;;;;;;;5.93;2.92;;;;;;;21.47;74.55;100558.69;5055710;28;20778;-82
2023/09/18 02:12:02;;;;;;;6.65;3.05;;;;;;;21.48;74.66;100568.47;5069980;28;20119;-81
2023/09/18 02:14:30;;;;;;;6.00;2.92;;;;;;;21.37;75.36;100564.16;5068569;28;20052;-82
2023/09/18 02:16:55;;;;;;;;;;;;;;;21.49;73.31;100570.09;5055416;28;20047;-85
2023/09/18 02:19:21;;;;;;;7.93;3.40;;;;;;;21.34;74.50;100548.44;5066019;28;19916;-82
2023/09/18 02:21:46;;;;;;;6.13;3.33;;;;;;;21.31;73.25;100559.84;5068815;28;20028;-81
2023/09/18 02:24:12;;;;;;;7.07;3.22;;;;;;;21.25;75.45;100551.75;5068705;28;20024;-83
2023/09/18 02:26:38;;;;;;;7.15;3.13;;;;;;;21.38;74.87;100557.66;5070206;28;20424;-81
2023/09/18 02:29:11;;;;;;;4.45;2.70;;;;;;;21.29;75.27;100562.84;5058159;28;20041;-83
2023/09/18 02:31:36;;;;;;;5.32;3.50;;;;;;;21.17;76.56;100552.31;5066667;28;20035;-82
2023/09/18 02:34:02;;;;;;;8.18;3.00;;;;;;;21.21;75.71;100561.50;5068829;28;20108;-82
2023/09/18 02:36:27;;;;;;;8.02;3.05;;;;;;;21.22;74.53;100546.84;5070482;28;20489;-82
2023/09/18 02:38:52;;;;;;;6.40;3.55;;;;;;;21.17;75.61;100565.06;5060407;28;20089;-83
2023/09/18 02:41:18;;;;;;;5.60;3.60;;;;;;;20.81;77.63;100555.13;5050400;28;20021;-82
2023/09/18 02:43:43;;;;;;;8.35;3.40;;;;;;;20.73;78.05;100561.13;5059656;28;20158;-81
2023/09/18 02:46:09;;;;;;;6.97;3.58;;;;;;;20.85;78.53;100567.06;5070599;28;20047;-82
2023/09/18 02:48:34;;;;;;;6.97;3.00;;;;;;;20.96;77.70;100565.13;5063248;28;20086;-81
2023/09/18 02:51:01;;;;;;;5.30;3.00;;;;;;;20.96;77.92;100572.44;5058845;28;20043;-83
2023/09/18 02:53:27;;;;;;;7.65;3.55;;;;;;;21.02;77.37;100574.06;5054177;28;21039;-82
2023/09/18 02:55:54;;;;;;;8.60;3.85;;;;;;;20.91;77.22;100567.06;5052022;28;20036;-82
2023/09/18 02:58:21;;;;;;;7.28;3.35;;;;;;;21.21;76.96;100587.84;5066888;28;20021;-82
2023/09/18 03:00:48;;;;;;;6.60;3.40;;;;;;;20.93;77.59;100548.59;5049976;28;20043;-81
2023/09/18 03:03:14;;;;;;;7.85;3.33;;;;;;;21.10;77.14;100578.09;5052613;28;20032;-81
2023/09/18 03:05:41;;;;;;;6.93;3.35;;;;;;;21.15;76.65;100578.91;5069745;28;20515;-82
2023/09/18 03:08:11;;;;;;;9.32;3.00;;;;;;;21.24;76.11;100587.25;5070134;28;20044;-82
2023/09/18 03:10:39;;;;;;;6.97;3.70;;;;;;;21.30;76.11;100585.34;5047740;28;20417;-82
2023/09/18 03:13:06;;;;;;;6.45;3.33;;;;;;;21.02;76.32;100546.94;5049792;28;20021;-82
2023/09/18 03:15:32;;;;;;;6.43;3.30;;;;;;;21.12;76.29;100593.00;5049208;28;20110;-84
2023/09/18 03:17:58;;;;;;;6.03;3.42;;;;;;;21.06;75.71;100580.53;5050016;28;20041;-84
2023/09/18 03:20:26;;;;;;;7.38;2.95;;;;;;;20.86;76.50;100567.84;5065140;28;20060;-82
2023/09/18 03:22:54;;;;;;;6.70;3.47;;;;;;;21.15;75.88;100597.88;5051393;28;20029;-81
2023/09/18 03:25:20;;;;;;;7.55;3.72;;;;;;;20.92;76.22;100568.66;5052112;28;20540;-82
2023/09/18 03:27:45;;;;;;;7.43;3.33;;;;;;;20.98;75.37;100578.41;5051985;28;20029;-82
2023/09/18 03:30:15;;;;;;;7.15;3.55;;;;;;;21.14;75.30;100593.53;5053204;28;20037;-85
2023/09/18 03:32:41;;;;;;;6.63;3.60;;;;;;;21.13;74.88;100558.56;5055277;28;20024;-82
2023/09/18 03:35:08;;;;;;;7.00;3.28;;;;;;;20.98;77.23;100562.13;5056722;28;20036;-82
2023/09/18 03:37:34;;;;;;;7.90;3.73;;;;;;;21.11;78.09;100588.69;5063436;28;20122;-82
2023/09/18 03:39:59;;;;;;;7.47;3.55;;;;;;;21.20;76.88;100575.34;5060683;28;20239;-82
2023/09/18 03:42:26;;;;;;;9.23;3.85;;;;;;;21.04;77.70;100566.44;5066999;28;20620;-81
2023/09/18 03:44:51;;;;;;;13.20;5.95;;;;;;;20.98;76.15;100551.28;5059803;28;20035;-82
2023/09/18 03:47:16;;;;;;;17.98;9.07;;;;;;;21.09;78.00;100569.16;5059709;28;20032;-84
2023/09/18 03:49:42;;;;;;;18.73;8.73;;;;;;;20.86;77.67;100565.16;5072800;28;20025;-82
2023/09/18 03:52:07;;;;;;;16.33;7.78;;;;;;;20.79;78.35;100559.22;5072783;28;20366;-82
2023/09/18 03:54:33;;;;;;;19.00;7.00;;;;;;;20.87;78.17;100556.75;5063818;28;20656;-83
2023/09/18 03:56:58;;;;;;;24.52;8.63;;;;;;;21.21;76.24;100577.78;5054659;28;20414;-82
2023/09/18 03:59:24;;;;;;;18.08;7.53;;;;;;;21.04;76.40;100582.72;5067048;28;20021;-84
2023/09/18 04:01:49;;;;;;;21.27;7.18;;;;;;;20.77;79.20;100577.66;5060267;28;20111;-81
2023/09/18 04:04:15;;;;;;;19.77;7.77;;;;;;;20.70;77.92;100577.94;5068045;28;20101;-82
2023/09/18 04:06:42;;;;;;;14.18;5.72;;;;;;;20.80;76.89;100588.75;5052796;28;20032;-82
2023/09/18 04:09:08;;;;;;;13.93;6.25;;;;;;;20.69;76.67;100587.16;5051543;28;20025;-83
2023/09/18 04:11:33;;;;;;;11.00;5.45;;;;;;;20.59;77.41;100581.75;5051234;28;20037;-82
2023/09/18 04:14:00;;;;;;;14.25;4.80;;;;;;;20.54;80.12;100584.44;5059581;28;20059;-84
2023/09/18 04:16:27;;;;;;;10.30;4.20;;;;;;;20.67;79.83;100594.72;5050373;28;20123;-83
2023/09/18 04:18:53;;;;;;;13.70;4.93;;;;;;;20.93;79.67;100583.84;5050907;28;20021;-83
2023/09/18 04:21:19;;;;;;;15.40;4.65;;;;;;;20.91;79.84;100594.16;5050484;28;20032;-84
2023/09/18 04:23:44;;;;;;;10.88;4.35;;;;;;;20.98;79.53;100597.38;5056489;28;20028;-86
2023/09/18 04:26:13;;;;;;;15.32;4.90;;;;;;;21.18;78.18;100599.22;5052287;28;20071;-83
2023/09/18 04:28:38;;;;;;;9.30;3.88;;;;;;;20.65;78.24;100576.03;5050794;28;20037;-81
2023/09/18 04:31:03;;;;;;;10.43;4.45;;;;;;;20.37;79.13;100579.28;5051778;28;20032;-85
2023/09/18 04:33:29;;;;;;;10.57;4.97;;;;;;;20.17;81.51;100589.03;5069399;28;20036;-84
2023/09/18 04:35:54;;;;;;;10.25;4.25;;;;;;;20.47;79.50;100579.28;5070549;28;20031;-83
2023/09/18 04:38:20;;;;;;;16.10;4.70;;;;;;;20.41;79.55;100596.63;5060139;28;20174;-83
2023/09/18 04:40:45;;;;;;;14.68;5.00;;;;;;;20.28;80.78;100597.97;5049691;28;20017;-83
2023/09/18 04:43:11;;;;;;;16.52;5.90;;;;;;;20.03;83.80;100594.16;5065352;28;20071;-83
2023/09/18 04:45:37;;;;;;;9.43;4.53;;;;;;;19.94;82.97;100587.69;5069420;28;20028;-85
2023/09/18 04:48:05;;;;;;;9.50;3.80;;;;;;;19.89;83.04;100587.66;5065519;28;20035;-83
2023/09/18 04:50:31;;;;;;;8.25;3.60;;;;;;;19.98;82.42;100587.94;5051488;28;20481;-83
2023/09/18 04:52:57;;;;;;;7.72;3.55;;;;;;;20.52;79.24;100597.44;5049303;28;20036;-83
2023/09/18 04:55:23;;;;;;;7.35;3.85;;;;;;;20.12;81.48;100588.22;5064819;28;20070;-83
2023/09/18 04:57:49;;;;;;;9.38;3.95;;;;;;;19.96;81.04;100558.44;5068446;28;20473;-82
2023/09/18 05:00:14;;;;;;;7.25;3.50;;;;;;;20.32;79.32;100582.81;5049399;28;20033;-84
2023/09/18 05:02:40;;;;;;;9.30;3.78;;;;;;;20.46;79.34;100583.88;5056905;28;20032;-83
2023/09/18 05:05:08;;;;;;;9.85;3.22;;;;;;;20.45;79.25;100595.81;5061836;28;20119;-84
2023/09/18 05:07:34;;;;;;;8.35;4.00;;;;;;;20.24;80.46;100581.44;5069744;28;20036;-85
2023/09/18 05:09:59;;;;;;;8.85;4.32;;;;;;;20.38;80.90;100587.16;5050485;28;20028;-83
2023/09/18 05:12:25;;;;;;;8.40;3.42;;;;;;;20.53;79.88;100593.63;5054292;28;20020;-83
2023/09/18 05:14:51;;;;;;;7.65;4.00;;;;;;;20.52;80.57;100597.44;5062316;28;20131;-83
2023/09/18 05:17:18;;;;;;;8.60;3.13;;;;;;;20.45;79.88;100589.56;5070169;28;20028;-82
2023/09/18 05:19:44;;;;;;;9.43;3.90;;;;;;;20.76;78.59;100603.13;5054459;28;20041;-83
2023/09/18 05:22:10;;;;;;;9.80;3.63;;;;;;;20.84;77.98;100611.53;5052390;28;20091;-83
2023/09/18 05:24:37;;;;;;;7.43;3.50;;;;;;;20.87;78.02;100605.53;5054093;28;20792;-83
2023/09/18 05:27:08;;;;;;;7.53;3.20;;;;;;;20.81;77.70;100600.41;5051191;28;20489;-84
2023/09/18 05:29:37;;;;;;;7.22;3.33;;;;;;;20.76;77.85;100598.53;5063422;28;20473;-83
2023/09/18 05:32:03;;;;;;;5.97;3.25;;;;;;;20.85;77.60;100585.22;5055935;28;20067;-84
2023/09/18 05:34:29;;;;;;;8.50;3.40;;;;;;;21.22;75.87;100598.38;5052439;28;20060;-83
2023/09/18 05:36:54;;;;;;;7.85;3.28;;;;;;;21.09;76.03;100600.91;5054387;28;20481;-83
2023/09/18 05:39:20;;;;;;;8.40;3.30;;;;;;;21.10;76.09;100592.47;5050225;28;20029;-83
2023/09/18 05:41:45;;;;;;;6.10;3.05;;;;;;;21.19;76.27;100609.81;5048279;28;20025;-84
2023/09/18 05:44:10;;;;;;;9.35;3.42;;;;;;;20.93;76.85;100587.38;5049433;28;20474;-83
2023/09/18 05:46:36;;;;;;;10.43;3.45;;;;;;;20.80;76.77;100599.59;5048613;28;20037;-82
2023/09/18 05:49:02;;;;;;;7.40;2.88;;;;;;;21.01;76.09;100604.97;5049274;28;20417;-82
2023/09/18 05:51:28;;;;;;;7.00;3.00;;;;;;;21.17;74.25;100587.56;5049453;28;20060;-83
2023/09/18 05:53:53;;;;;;;8.75;3.35;;;;;;;21.41;74.03;100614.88;5048133;28;20060;-82
2023/09/18 05:56:19;;;;;;;11.50;3.22;;;;;;;21.34;73.37;100608.94;5055958;28;20762;-81
2023/09/18 05:58:44;;;;;;;9.07;4.25;;;;;;;21.59;72.97;100615.38;5049422;28;20059;-82
2023/09/18 06:01:10;;;;;;;7.10;3.30;;;;;;;21.88;70.85;100610.03;5048904;28;20036;-83
2023/09/18 06:03:35;;;;;;;10.55;3.47;;;;;;;21.75;71.86;100600.63;5055236;28;20032;-82
2023/09/18 06:06:05;;;;;;;7.03;3.22;;;;;;;22.33;69.84;100613.56;5056462;28;20039;-82
2023/09/18 06:08:31;;;;;;;7.13;3.50;;;;;;;21.98;69.89;100604.53;5047989;28;20618;-82
2023/09/18 06:10:57;;;;;;;7.05;3.28;;;;;;;21.85;69.83;100597.84;5048718;28;20017;-84
2023/09/18 06:13:25;;;;;;;8.50;3.35;;;;;;;22.25;67.50;100606.00;5048026;28;20036;-83
2023/09/18 06:15:54;;;;;;;6.47;2.95;;;;;;;22.57;66.13;100623.69;5047272;28;20505;-83
2023/09/18 06:18:20;;;;;;;8.15;3.50;;;;;;;22.34;67.39;100617.91;5049355;28;20037;-84
2023/09/18 06:20:46;;;;;;;6.65;3.10;;;;;;;22.29;67.97;100606.25;5064946;28;20040;-82
2023/09/18 06:23:12;;;;;;;6.63;3.20;;;;;;;22.03;67.94;100615.38;5051816;28;20079;-83
2023/09/18 06:25:38;;;;;;;6.55;2.83;;;;;;;21.93;68.71;100610.00;5054004;28;20016;-82
2023/09/18 06:28:04;;;;;;;6.97;3.55;;;;;;;22.46;67.15;100607.47;5048893;28;20095;-84
2023/09/18 06:30:34;;;;;;;9.55;3.38;;;;;;;22.49;66.35;100611.50;5048880;28;20061;-83
2023/09/18 06:33:01;;;;;;;5.80;3.00;;;;;;;23.13;63.92;100636.75;5049334;28;20056;-82
2023/09/18 06:35:26;;;;;;;9.23;3.30;;;;;;;23.12;62.61;100610.66;5052354;28;20493;-82
2023/09/18 06:37:54;;;;;;;6.85;3.30;;;;;;;23.06;63.59;100628.13;5051810;28;20079;-82
2023/09/18 06:40:19;;;;;;;7.57;3.28;;;;;;;22.87;63.60;100611.72;5047971;28;20036;-82
2023/09/18 06:42:44;;;;;;;7.70;3.05;;;;;;;23.06;63.54;100622.69;5048830;28;20033;-82
2023/09/18 06:45:11;;;;;;;9.38;3.83;;;;;;;22.94;63.77;100627.69;5062879;28;20033;-82
2023/09/18 06:47:37;;;;;;;6.03;3.22;;;;;;;22.78;63.04;100611.53;5067307;28;20021;-81
2023/09/18 06:50:04;;;;;;;8.52;3.42;;;;;;;22.87;63.87;100628.84;5062287;28;20029;-81
2023/09/18 06:52:30;;;;;;;8.18;5.00;;;;;;;22.78;63.41;100625.13;5051505;28;20028;-83
2023/09/18 06:54:57;;;;;;;7.07;3.35;;;;;;;22.94;63.46;100639.38;5047869;28;20067;-83
2023/09/18 06:57:25;;;;;;;7.45;3.05;;;;;;;22.89;63.63;100630.47;5050929;28;20036;-81
2023/09/18 06:59:51;;;;;;;;;;;;;;;22.95;63.66;100640.19;5054466;28;20028;-82
2023/09/18 07:02:18;;;;;;;7.40;3.17;;;;;;;23.00;63.52;100637.41;5058172;28;19909;-83
2023/09/18 07:04:46;;;;;;;;;;;;;;;23.12;62.61;100640.56;5070240;28;20025;-83
2023/09/18 07:07:13;;;;;;;7.10;3.28;;;;;;;22.94;62.87;100639.38;5066648;28;19913;-85
2023/09/18 07:09:40;;;;;;;9.07;3.92;;;;;;;22.97;62.13;100632.56;5060125;28;20043;-84
2023/09/18 07:12:06;;;;;;;7.28;3.40;;;;;;;22.90;63.85;100637.50;5079168;28;20028;-83
2023/09/18 07:14:33;;;;;;;7.32;3.00;;;;;;;22.92;63.06;100610.84;5067792;28;20052;-84
2023/09/18 07:17:00;;;;;;;5.45;3.33;;;;;;;23.01;63.00;100625.44;5071531;28;20028;-89
2023/09/18 07:19:26;;;;;;;8.17;3.37;;;;;;;22.70;64.31;100633.91;5059981;28;20044;-86
2023/09/18 07:21:53;;;;;;;6.60;3.00;;;;;;;22.73;63.28;100617.00;5060568;28;20028;-83
2023/09/18 07:24:20;;;;;;;;;;;;;;;22.63;63.72;100626.06;5062373;28;20033;-81
2023/09/18 07:26:47;;;;;;;7.07;2.83;;;;;;;22.45;64.71;100610.47;5067284;28;20066;-82
2023/09/18 07:29:15;;;;;;;6.82;3.00;;;;;;;22.26;64.63;100608.44;5059705;28;20088;-80
2023/09/18 07:31:42;;;;;;;7.80;2.83;;;;;;;22.64;63.81;100635.06;5058423;28;20029;-85
2023/09/18 07:34:08;;;;;;;6.15;3.35;;;;;;;22.61;64.49;100625.53;5060262;28;20025;-83
2023/09/18 07:36:33;;;;;;;8.35;3.40;;;;;;;22.71;63.84;100627.34;5079526;28;20088;-82
2023/09/18 07:38:59;;;;;;;8.88;3.25;;;;;;;22.71;63.67;100634.72;5076921;28;20074;-83
2023/09/18 07:41:25;;;;;;;6.28;2.70;;;;;;;22.87;62.45;100639.72;5065422;28;20036;-81
2023/09/18 07:43:50;;;;;;;12.35;6.07;;;;;;;23.07;61.67;100637.91;5056405;28;20089;-84
2023/09/18 07:46:16;;;;;;;115.53;13.05;;;;;;;23.33;60.64;100646.59;5072653;28;20036;-85
2023/09/18 07:48:44;;;;;;;38.33;26.25;;;;;;;23.37;59.70;100644.91;5074766;28;20035;-89
2023/09/18 07:51:13;;;;;;;13.95;7.68;;;;;;;23.47;59.21;100638.53;5073826;28;20032;-84
2023/09/18 07:53:39;;;;;;;6.85;3.80;;;;;;;23.45;58.76;100636.09;5066838;28;20116;-85
2023/09/18 07:56:04;;;;;;;8.10;4.53;;;;;;;23.55;60.09;100642.53;5053628;28;20033;-85
2023/09/18 07:58:34;;;;;;;8.77;3.83;;;;;;;23.18;60.77;100639.41;5061107;28;20021;-84
2023/09/18 08:00:59;;;;;;;6.07;3.08;;;;;;;23.50;58.96;100639.84;5053739;28;20481;-84
2023/09/18 08:03:28;;;;;;;8.20;2.90;;;;;;;23.22;59.10;100626.84;5053210;28;20078;-82
2023/09/18 08:05:54;;;;;;;6.18;2.78;;;;;;;23.05;60.54;100634.69;5052046;28;20035;-83
2023/09/18 08:08:20;;;;;;;5.53;3.65;;;;;;;23.12;59.45;100646.00;5059658;28;20025;-82
2023/09/18 08:10:46;;;;;;;15.68;5.07;;;;;;;23.22;59.29;100629.56;5069270;28;20033;-84
2023/09/18 08:13:12;;;;;;;17.65;6.57;;;;;;;23.52;60.22;100637.66;5051627;28;20029;-85
2023/09/18 08:15:38;;;;;;;31.10;18.05;;;;;;;23.85;56.91;100625.00;5059681;28;20053;-85
2023/09/18 08:18:04;;;;;;;104.50;22.63;;;;;;;23.93;55.80;100621.63;5071244;28;20036;-86
2023/09/18 08:20:30;;;;;;;13.23;4.88;;;;;;;24.46;54.80;100626.78;5071858;28;20033;-85
2023/09/18 08:22:56;;;;;;;7.13;3.45;;;;;;;24.93;51.94;100631.44;5052912;28;20021;-86
2023/09/18 08:25:21;;;;;;;6.22;3.83;;;;;;;25.08;51.47;100627.63;5050109;28;20055;-86
2023/09/18 08:27:47;;;;;;;5.80;2.90;;;;;;;24.58;53.18;100617.31;5051558;28;20123;-83
2023/09/18 08:30:14;;;;;;;10.88;3.65;;;;;;;25.22;50.91;100634.72;5051495;28;20055;-80
2023/09/18 08:32:40;;;;;;;8.77;3.60;;;;;;;25.47;49.79;100632.59;5068873;28;20029;-85
2023/09/18 08:35:06;;;;;;;6.00;2.67;;;;;;;24.92;52.13;100608.81;5054912;28;20064;-86
2023/09/18 08:37:32;;;;;;;9.50;3.03;;;;;;;24.43;53.25;100591.13;5051666;28;20021;-85
2023/09/18 08:40:00;;;;;;;6.43;3.17;;;;;;;25.00;51.29;100605.38;5070561;28;20040;-84
2023/09/18 08:42:27;;;;;;;;;;;;;;;25.22;50.30;100615.63;5060470;28;20713;-83
2023/09/18 08:44:54;;;;;;;;;;;;;;;24.72;53.39;100601.81;5055439;28;19999;-85
2023/09/18 08:47:20;;;;;;;7.10;2.97;;;;;;;24.38;52.60;100583.84;5052260;28;20360;-85
2023/09/18 08:49:48;;;;;;;6.35;2.88;;;;;;;24.40;52.40;100587.06;5052744;28;20043;-85
2023/09/18 08:52:15;;;;;;;4.80;2.97;;;;;;;24.70;51.12;100574.03;5051671;28;20036;-84
2023/09/18 08:54:40;;;;;;;8.00;3.00;;;;;;;24.51;52.59;100589.66;5061775;28;20093;-85
2023/09/18 08:57:07;;;;;;;5.30;2.70;;;;;;;25.31;49.70;100603.97;5072390;28;20021;-85
2023/09/18 08:59:36;;;;;;;7.23;2.87;;;;;;;25.45;49.69;100570.06;5059478;28;20037;-84
2023/09/18 09:02:02;;;;;;;5.70;2.80;;;;;;;26.20;47.79;100588.91;5051512;28;20033;-84
2023/09/18 09:04:28;;;;;;;6.50;2.92;;;;;;;26.38;46.66;100587.88;5051334;28;20020;-83
2023/09/18 09:06:57;;;;;;;68.78;30.40;;;;;;;26.61;44.90;100599.63;5052960;28;20110;-83
2023/09/18 09:09:23;;;;;;;23.67;10.23;;;;;;;25.81;44.12;100587.59;5061333;28;20028;-84
2023/09/18 09:11:50;;;;;;;16.38;7.65;;;;;;;26.17;43.88;100597.69;5070933;28;20025;-84
2023/09/18 09:14:17;;;;;;;6.68;2.28;;;;;;;25.99;43.87;100583.09;5067816;28;20044;-85
2023/09/18 09:16:50;;;;;;;13.30;3.70;;;;;;;26.19;43.93;100585.34;5051005;28;20044;-85
2023/09/18 09:19:17;;;;;;;5.95;3.15;;;;;;;26.09;43.66;100576.59;5052203;28;20033;-84
2023/09/18 09:21:44;;;;;;;6.32;2.95;;;;;;;26.39;42.45;100592.22;5052065;28;20032;-84
2023/09/18 09:24:16;;;;;;;5.20;2.50;;;;;;;26.17;44.21;100594.97;5051416;28;20402;-87
2023/09/18 09:26:42;;;;;;;42.13;16.33;;;;;;;26.55;42.06;100576.22;5052186;28;20029;-84
2023/09/18 09:29:20;;;;;;;16.77;7.45;;;;;;;26.44;42.31;100583.09;5058667;28;20021;-85
2023/09/18 09:31:47;;;;;;;13.15;6.05;;;;;;;26.32;41.81;100580.13;5051222;28;20532;-85
2023/09/18 09:34:26;;;;;;;4.88;2.88;;;;;;;26.52;41.79;100586.97;5050625;28;20025;-85
2023/09/18 09:36:55;;;;;;;9.15;4.97;;;;;;;26.32;42.61;100571.94;5058428;28;20032;-85
2023/09/18 09:39:21;;;;;;;5.18;2.58;;;;;;;26.40;41.74;100561.03;5065510;28;20174;-84
2023/09/18 09:41:49;;;;;;;27.30;12.48;;;;;;;27.04;41.71;100570.81;5051662;28;20501;-84
2023/09/18 09:44:14;;;;;;;12.40;5.72;;;;;;;27.61;38.75;100567.25;5048423;28;20516;-85
2023/09/18 09:46:51;;;;;;;6.28;3.42;;;;;;;27.23;38.06;100573.31;5065729;28;20119;-84
2023/09/18 09:49:19;;;;;;;12.23;3.65;;;;;;;27.77;37.23;100570.34;5055160;28;20024;-85
2023/09/18 09:51:45;;;;;;;3.72;2.10;;;;;;;27.93;35.95;100574.22;5070388;28;20039;-85
2023/09/18 09:54:12;;;;;;;4.18;2.33;;;;;;;27.22;38.10;100561.53;5070900;28;20024;-85
2023/09/18 09:56:53;;;;;;;7.95;3.38;;;;;;;26.49;38.92;100544.66;5052358;28;20524;-85
2023/09/18 09:59:20;;;;;;;9.32;3.72;;;;;;;27.53;38.31;100568.06;5052219;28;20157;-86
2023/09/18 10:01:51;;;;;;;6.10;2.97;;;;;;;27.01;38.17;100557.75;5070433;28;20032;-87
2023/09/18 10:04:18;;;;;;;3.47;2.00;;;;;;;26.89;37.96;100555.66;5070234;28;20396;-85
2023/09/18 10:06:46;;;;;;;5.40;2.13;;;;;;;26.85;37.63;100532.78;5054587;28;20032;-85
2023/09/18 10:09:14;;;;;;;3.50;1.80;;;;;;;26.97;33.93;100570.47;5051844;28;20048;-85
2023/09/18 10:11:45;;;;;;;10.23;4.30;;;;;;;27.11;34.74;100538.31;5029831;28;20029;-83
2023/09/18 10:14:29;;;;;;;9.98;5.20;;;;;;;27.55;33.25;100547.44;5031595;28;20574;-85
2023/09/18 10:16:56;;;;;;;22.08;8.98;;;;;;;27.32;35.29;100554.16;5049248;28;20029;-84
2023/09/18 10:19:33;;;;;;;8.68;4.07;;;;;;;27.05;36.63;100528.63;5050175;28;20033;-85
2023/09/18 10:22:06;;;;;;;;;;;;;;;27.10;35.14;100558.59;5050616;28;20033;-85
2023/09/18 10:24:39;;;;;;;3.83;2.10;;;;;;;26.46;35.78;100537.09;5051225;28;20147;-86
2023/09/18 10:27:06;;;;;;;3.97;1.90;;;;;;;27.23;33.95;100557.69;5050401;28;20110;-85
2023/09/18 10:29:36;;;;;;;3.83;1.93;;;;;;;27.96;31.95;100559.84;5056670;28;20036;-86
2023/09/18 10:32:07;;;;;;;10.40;4.47;;;;;;;28.13;32.17;100536.28;5053880;28;20110;-85
2023/09/18 10:34:33;;;;;;;39.92;13.55;;;;;;;28.47;32.16;100531.84;5054422;28;20068;-86
2023/09/18 10:37:01;;;;;;;18.30;7.35;;;;;;;28.90;30.81;100539.13;5058370;28;20459;-85
2023/09/18 10:39:29;;;;;;;21.90;7.40;;;;;;;29.27;31.39;100528.41;5074288;28;20178;-84
2023/09/18 10:42:01;;;;;;;3.88;2.08;;;;;;;28.74;30.29;100536.91;5074128;28;20078;-85
2023/09/18 10:44:28;;;;;;;3.95;1.90;;;;;;;28.39;30.54;100528.78;5075582;28;20104;-86
2023/09/18 10:46:54;;;;;;;5.85;1.90;;;;;;;28.51;30.78;100516.38;5062233;28;20500;-87
2023/09/18 10:49:20;;;;;;;4.97;1.92;;;;;;;28.40;30.54;100537.81;5054234;28;20033;-85
2023/09/18 10:51:53;;;;;;;28.33;12.35;;;;;;;28.70;30.02;100519.50;5053955;28;20048;-85
2023/09/18 10:54:23;;;;;;;25.95;11.25;;;;;;;29.37;29.32;100525.28;5055042;28;20025;-85
2023/09/18 10:56:52;;;;;;;25.67;11.65;;;;;;;29.24;29.18;100507.91;5064506;28;20028;-85
2023/09/18 10:59:18;;;;;;;12.57;5.82;;;;;;;29.22;29.04;100516.50;5073525;28;20042;-86
2023/09/18 11:01:44;;;;;;;20.80;8.60;;;;;;;29.39;29.00;100523.78;5058472;28;20029;-86
2023/09/18 11:04:10;;;;;;;8.73;2.22;;;;;;;28.73;28.67;100524.34;5054013;28;20537;-87
2023/09/18 11:06:54;;;;;;;5.88;2.95;;;;;;;28.74;29.25;100522.41;5053497;28;20478;-84
2023/09/18 11:09:24;;;;;;;6.78;2.55;;;;;;;28.67;28.68;100509.19;5054690;28;20468;-86
2023/09/18 11:12:09;;;;;;;8.20;3.63;;;;;;;29.17;29.31;100524.91;5067364;28;20397;-84
2023/09/18 11:14:57;;;;;;;11.75;5.80;;;;;;;29.17;28.20;100502.94;5073312;28;20054;-85
2023/09/18 11:17:36;;;;;;;3.55;2.05;;;;;;;29.39;28.60;100512.81;5057850;28;20032;-87
2023/09/18 11:20:17;;;;;;;13.15;8.23;;;;;;;29.45;28.64;100500.47;5053494;28;20040;-84
2023/09/18 11:23:12;;;;;;;34.92;17.90;;;;;;;29.89;27.82;100513.84;5033204;28;20037;-86
2023/09/18 11:25:41;;;;;;;20.23;8.98;;;;;;;29.77;27.78;100489.06;5048918;28;20049;-86